Time;durP1;ratioP1;P1;durP2;ratioP2;P2;SDS_P1;SDS_P2;PMS_P1;PMS_P2;Temp;Humidity;BMP_temperature;BMP_pressure;BME280_temperature;BME280_humidity;BME280_pressure;Samples;Min_cycle;Max_cycle;Signal;HPM_P1;HPM_P2
2022/04/21 00:00:28;;;;;;;9.73;5.85;;;;;;;4.21;100.00;101550.34;5075732;28;20602;-77
2022/04/21 00:02:54;;;;;;;15.55;6.63;;;;;;;4.22;100.00;101565.84;5055675;28;20036;-77
2022/04/21 00:05:19;;;;;;;10.68;6.53;;;;;;;4.17;100.00;101561.81;5064827;28;20664;-77
2022/04/21 00:07:48;;;;;;;16.08;6.15;;;;;;;4.09;100.00;101550.09;5091632;28;20028;-77
2022/04/21 00:10:14;;;;;;;10.98;5.68;;;;;;;4.12;100.00;101566.44;5092826;28;20110;-76
2022/04/21 00:12:40;;;;;;;10.38;6.28;;;;;;;4.03;100.00;101562.56;5091560;28;20043;-77
2022/04/21 00:15:07;;;;;;;13.45;6.50;;;;;;;3.95;100.00;101554.38;5085757;28;20044;-76
2022/04/21 00:17:33;;;;;;;14.20;6.47;;;;;;;3.92;100.00;101557.13;5087220;28;20035;-77
2022/04/21 00:19:59;;;;;;;12.73;6.22;;;;;;;3.85;100.00;101554.88;5083017;28;20040;-77
2022/04/21 00:25:11;;;;;;;9.98;6.82;;;;;;;4.02;100.00;101555.72;5087995;28;20036;-80
2022/04/21 00:27:38;;;;;;;10.23;7.10;;;;;;;4.01;100.00;101556.63;5064318;28;20382;-77
2022/04/21 00:30:06;;;;;;;11.55;6.40;;;;;;;4.00;100.00;101557.56;5069018;28;20052;-76
2022/04/21 00:32:36;;;;;;;10.65;6.60;;;;;;;3.95;100.00;101560.41;5089662;28;20027;-76
2022/04/21 00:35:04;;;;;;;11.45;7.03;;;;;;;3.90;100.00;101560.66;5074455;28;20063;-76
2022/04/21 00:37:30;;;;;;;11.82;7.03;;;;;;;3.86;100.00;101560.88;5082378;28;20024;-77
2022/04/21 00:39:55;;;;;;;14.82;7.70;;;;;;;3.83;100.00;101548.94;5069115;28;20407;-76
2022/04/21 00:42:21;;;;;;;9.70;7.10;;;;;;;3.76;100.00;101544.97;5077815;28;20033;-76
2022/04/21 00:44:49;;;;;;;11.73;6.70;;;;;;;3.70;100.00;101538.38;5056830;28;20043;-77
2022/04/21 00:47:16;;;;;;;12.13;7.55;;;;;;;3.82;100.00;101547.25;5086175;28;20024;-77
2022/04/21 00:49:43;;;;;;;13.27;8.02;;;;;;;3.73;100.00;101537.38;5088860;28;20430;-79
2022/04/21 00:52:09;;;;;;;11.57;7.47;;;;;;;3.69;100.00;101526.31;5089932;28;20028;-77
2022/04/21 00:54:35;;;;;;;16.30;8.27;;;;;;;3.66;100.00;101523.88;5074870;28;20520;-76
2022/04/21 00:57:01;;;;;;;14.50;8.05;;;;;;;3.65;100.00;101532.56;5094827;28;20051;-76
2022/04/21 00:59:27;;;;;;;15.40;8.40;;;;;;;3.65;100.00;101531.75;5081253;28;20042;-76
2022/04/21 01:04:41;;;;;;;15.45;8.43;;;;;;;3.64;100.00;101524.91;5086434;28;20040;-77
2022/04/21 01:07:10;;;;;;;14.50;8.23;;;;;;;3.58;100.00;101525.22;5086555;28;20047;-76
2022/04/21 01:09:37;;;;;;;18.05;9.43;;;;;;;3.55;100.00;101534.00;5091009;28;20032;-77
2022/04/21 01:12:09;;;;;;;12.27;8.23;;;;;;;3.50;100.00;101523.03;5065544;28;20029;-76
2022/04/21 01:14:37;;;;;;;13.57;9.57;;;;;;;3.54;100.00;101523.69;5087042;28;20036;-76
2022/04/21 01:17:06;;;;;;;12.68;8.68;;;;;;;3.52;100.00;101526.38;5079795;28;20036;-76
2022/04/21 01:19:33;;;;;;;14.57;9.20;;;;;;;3.50;100.00;101516.09;5079880;28;20024;-76
2022/04/21 01:21:59;;;;;;;12.38;9.35;;;;;;;3.54;100.00;101532.31;5072235;28;20470;-76
2022/04/21 01:24:26;;;;;;;14.70;8.88;;;;;;;3.51;100.00;101516.94;5087169;28;20047;-78
2022/04/21 01:26:54;;;;;;;14.45;8.93;;;;;;;3.45;100.00;101531.06;5088691;28;20040;-77
2022/04/21 01:29:19;;;;;;;14.77;9.07;;;;;;;3.48;100.00;101520.53;5071203;28;20036;-76
2022/04/21 01:31:45;;;;;;;14.73;9.13;;;;;;;3.46;100.00;101521.53;5071013;28;20528;-77
2022/04/21 01:34:11;;;;;;;15.00;9.25;;;;;;;3.40;100.00;101508.88;5087464;28;20036;-77
2022/04/21 01:41:08;;;;;;;15.25;8.88;;;;;;;3.45;100.00;101518.09;5087753;28;20088;-76
2022/04/21 01:42:11;;;;;;;13.35;8.82;;;;;;;3.38;100.00;101513.31;5088444;28;20054;-77
2022/04/21 01:44:37;;;;;;;14.35;9.15;;;;;;;3.29;100.00;101518.03;5071681;28;20101;-76
2022/04/21 01:47:03;;;;;;;15.35;8.82;;;;;;;3.21;100.00;101502.06;5073090;28;20028;-75
2022/04/21 01:49:29;;;;;;;13.27;8.27;;;;;;;3.25;100.00;101518.31;5088709;28;20044;-76
2022/04/21 01:51:54;;;;;;;12.88;8.68;;;;;;;3.15;100.00;101507.59;5089134;28;20043;-76
2022/04/21 01:54:20;;;;;;;12.88;8.90;;;;;;;3.24;100.00;101514.88;5060039;28;20040;-77
2022/04/21 01:56:46;;;;;;;12.32;8.73;;;;;;;3.21;100.00;101506.44;5087882;28;20059;-76
2022/04/21 01:59:11;;;;;;;15.20;9.15;;;;;;;3.24;100.00;101514.88;5069978;28;20081;-77
2022/04/21 02:01:37;;;;;;;12.70;8.35;;;;;;;3.18;100.00;101506.56;5071529;28;20036;-77
2022/04/21 02:04:02;;;;;;;18.20;8.80;;;;;;;3.26;100.00;101500.06;5087350;28;20523;-77
2022/04/21 02:06:28;;;;;;;14.38;8.57;;;;;;;3.23;100.00;101496.81;5071261;28;20060;-77
2022/04/21 02:08:53;;;;;;;14.07;8.75;;;;;;;3.23;100.00;101483.84;5090679;28;20123;-76
2022/04/21 02:11:19;;;;;;;14.13;8.75;;;;;;;3.28;100.00;101498.25;5053657;28;20090;-77
2022/04/21 02:13:45;;;;;;;15.18;8.63;;;;;;;3.38;100.00;101488.22;5089336;28;20155;-77
2022/04/21 02:16:10;;;;;;;15.85;8.98;;;;;;;3.36;100.00;101492.66;5088636;28;20413;-76
2022/04/21 02:18:36;;;;;;;12.98;8.10;;;;;;;3.24;100.00;101480.31;5088213;28;20405;-77
2022/04/21 02:21:02;;;;;;;12.85;8.20;;;;;;;3.34;100.00;101491.88;5084402;28;20039;-76
2022/04/21 02:23:27;;;;;;;13.25;8.82;;;;;;;3.39;100.00;101496.81;5090910;28;20032;-77
2022/04/21 02:25:52;;;;;;;12.48;8.10;;;;;;;3.40;100.00;101485.53;5089308;28;20043;-76
2022/04/21 02:28:18;;;;;;;17.73;8.27;;;;;;;3.45;100.00;101483.56;5088673;28;20110;-77
2022/04/21 02:30:44;;;;;;;13.43;8.35;;;;;;;3.71;100.00;101489.88;5090680;28;20056;-76
2022/04/21 02:33:09;;;;;;;13.18;7.93;;;;;;;3.59;100.00;101496.59;5071805;28;20040;-78
2022/04/21 02:35:35;;;;;;;10.77;7.70;;;;;;;3.77;100.00;101494.78;5070994;28;21303;-76
2022/04/21 02:38:00;;;;;;;15.23;7.43;;;;;;;3.81;100.00;101496.28;5073652;28;20044;-77
2022/04/21 02:40:26;;;;;;;14.27;7.70;;;;;;;3.80;100.00;101489.38;5089879;28;20729;-77
2022/04/21 02:42:52;;;;;;;13.68;7.80;;;;;;;3.85;100.00;101491.75;5089802;28;20035;-78
2022/04/21 02:45:17;;;;;;;14.80;7.50;;;;;;;3.75;100.00;101482.78;5090277;28;20036;-78
2022/04/21 02:47:45;;;;;;;11.77;7.28;;;;;;;3.76;100.00;101487.88;5079974;28;20043;-78
2022/04/21 02:50:12;;;;;;;14.85;7.53;;;;;;;3.72;100.00;101482.97;5090066;28;20043;-78
2022/04/21 02:52:40;;;;;;;15.93;7.85;;;;;;;3.61;100.00;101486.13;5073825;28;20043;-78
2022/04/21 02:57:52;;;;;;;10.60;7.57;;;;;;;3.50;100.00;101479.78;5073763;28;20032;-77
2022/04/21 03:00:17;;;;;;;15.32;7.63;;;;;;;3.46;100.00;101469.66;5087497;28;20585;-76
2022/04/21 03:02:43;;;;;;;12.85;7.63;;;;;;;3.43;100.00;101469.81;5072726;28;20032;-77
2022/04/21 03:05:09;;;;;;;13.10;7.95;;;;;;;3.37;100.00;101463.22;5087080;28;20319;-77
2022/04/21 03:07:34;;;;;;;15.07;7.75;;;;;;;3.34;100.00;101462.53;5070949;28;20433;-78
2022/04/21 03:10:00;;;;;;;13.52;8.20;;;;;;;3.40;100.00;101472.56;5089026;28;20596;-78
2022/04/21 03:12:26;;;;;;;19.17;7.75;;;;;;;3.36;100.00;101468.47;5087077;28;20039;-77
2022/04/21 03:14:53;;;;;;;12.32;7.47;;;;;;;3.35;100.00;101464.19;5060347;28;20123;-76
2022/04/21 03:17:19;;;;;;;13.93;7.95;;;;;;;3.37;100.00;101473.59;5087307;28;20123;-77
2022/04/21 03:19:45;;;;;;;13.65;7.82;;;;;;;3.33;100.00;101468.63;5069172;28;20122;-76
2022/04/21 03:25:02;;;;;;;14.25;8.48;;;;;;;3.37;100.00;101462.34;5086299;28;20032;-77
2022/04/21 03:27:29;;;;;;;14.23;7.93;;;;;;;3.38;100.00;101459.69;5087717;28;20042;-77
2022/04/21 03:30:06;;;;;;;11.90;7.80;;;;;;;3.26;100.00;101462.94;5087006;28;20063;-77
2022/04/21 03:32:32;;;;;;;12.50;8.18;;;;;;;3.11;100.00;101459.41;5069345;28;20036;-77
2022/04/21 03:35:00;;;;;;;11.48;8.00;;;;;;;2.99;100.00;101462.63;5075804;28;20051;-76
2022/04/21 03:37:26;;;;;;;13.40;8.20;;;;;;;3.04;100.00;101456.28;5092309;28;20024;-78
2022/04/21 03:39:52;;;;;;;16.05;8.80;;;;;;;2.99;100.00;101462.63;5090627;28;20097;-78
2022/04/21 03:42:23;;;;;;;12.70;9.05;;;;;;;2.86;100.00;101452.91;5092719;28;20271;-78
2022/04/21 03:44:50;;;;;;;15.25;9.02;;;;;;;2.79;100.00;101461.06;5075815;28;20397;-78
2022/04/21 03:47:16;;;;;;;14.25;8.70;;;;;;;2.72;100.00;101455.38;5075932;28;20042;-79
2022/04/21 03:49:41;;;;;;;15.73;9.00;;;;;;;2.66;100.00;101453.91;5092535;28;20118;-79
2022/04/21 03:52:09;;;;;;;16.08;8.93;;;;;;;2.62;100.00;101454.13;5093460;28;20383;-78
2022/04/21 03:54:35;;;;;;;17.50;9.13;;;;;;;2.66;100.00;101461.69;5076136;28;20040;-78
2022/04/21 03:57:01;;;;;;;18.67;9.55;;;;;;;2.55;100.00;101445.84;5077511;28;20069;-77
2022/04/21 03:59:27;;;;;;;16.52;10.57;;;;;;;2.56;100.00;101455.28;5077198;28;20117;-78
2022/04/21 04:01:52;;;;;;;14.82;9.05;;;;;;;2.51;100.00;101458.13;5059691;28;20471;-77
2022/04/21 04:04:18;;;;;;;16.30;9.50;;;;;;;2.53;100.00;101466.66;5092861;28;20032;-78
2022/04/21 04:12:12;;;;;;;13.45;9.75;;;;;;;2.49;100.00;101453.94;5092993;28;20125;-78
2022/04/21 04:14:38;;;;;;;13.85;9.45;;;;;;;2.62;100.00;101452.41;5094149;28;20494;-77
2022/04/21 04:17:06;;;;;;;15.43;9.77;;;;;;;2.62;100.00;101449.81;5092159;28;20482;-76
2022/04/21 04:19:35;;;;;;;14.50;9.02;;;;;;;2.59;100.00;101455.16;5069785;28;20036;-77
2022/04/21 04:22:02;;;;;;;15.98;9.18;;;;;;;2.62;100.00;101454.13;5094845;28;20036;-78
2022/04/21 04:24:28;;;;;;;17.95;8.98;;;;;;;2.62;100.00;101449.81;5093135;28;20087;-77
2022/04/21 04:26:55;;;;;;;17.00;10.23;;;;;;;2.60;100.00;101438.69;5090917;28;22002;-77
2022/04/21 04:29:24;;;;;;;18.25;9.98;;;;;;;2.80;100.00;101444.59;5074409;28;20104;-78
2022/04/21 04:31:51;;;;;;;18.23;9.80;;;;;;;2.77;100.00;101440.44;5074960;28;21886;-77
2022/04/21 04:34:17;;;;;;;16.90;9.23;;;;;;;2.73;100.00;101437.16;5092292;28;20081;-78
2022/04/21 04:36:44;;;;;;;18.85;9.85;;;;;;;2.71;100.00;101440.72;5076223;28;20036;-78
2022/04/21 04:39:10;;;;;;;20.75;9.95;;;;;;;2.87;100.00;101457.16;5074302;28;20040;-78
2022/04/21 04:44:19;;;;;;;18.60;9.90;;;;;;;3.00;100.00;101449.59;5083855;28;20032;-78
2022/04/21 04:46:45;;;;;;;14.15;9.52;;;;;;;3.07;100.00;101442.31;5090808;28;20515;-77
2022/04/21 04:49:11;;;;;;;17.70;10.10;;;;;;;3.18;100.00;101452.97;5056711;28;20443;-78
2022/04/21 04:51:41;;;;;;;17.65;9.45;;;;;;;3.55;100.00;101456.19;5093522;28;20028;-79
2022/04/21 04:54:08;;;;;;;16.90;9.27;;;;;;;3.54;100.00;101444.13;5091383;28;20068;-79
2022/04/21 04:56:36;;;;;;;17.75;9.10;;;;;;;3.60;100.00;101454.19;5091434;28;20032;-78
2022/04/21 04:59:03;;;;;;;17.98;9.23;;;;;;;3.68;100.00;101453.75;5105893;28;20036;-78
2022/04/21 05:01:40;;;;;;;17.10;8.85;;;;;;;3.76;100.00;101455.94;5074982;28;20043;-78
2022/04/21 05:04:08;;;;;;;14.82;8.70;;;;;;;3.86;100.00;101455.34;5090551;28;20036;-78
2022/04/21 05:06:38;;;;;;;13.82;7.57;;;;;;;4.02;100.00;101441.50;5075808;28;20043;-78
2022/04/21 05:09:05;;;;;;;13.10;8.73;;;;;;;4.02;100.00;101439.72;5092976;28;20405;-77
2022/04/21 05:11:32;;;;;;;17.83;8.40;;;;;;;4.19;100.00;101451.75;5076366;28;20036;-79
2022/04/21 05:13:57;;;;;;;13.73;8.10;;;;;;;4.24;100.00;101443.72;5075568;28;20040;-77
2022/04/21 05:16:23;;;;;;;14.23;8.05;;;;;;;4.33;100.00;101442.31;5090061;28;20043;-77
2022/04/21 05:18:49;;;;;;;13.52;7.40;;;;;;;4.47;100.00;101448.38;5092274;28;20178;-77
2022/04/21 05:21:17;;;;;;;12.88;7.43;;;;;;;4.51;100.00;101436.06;5090514;28;20170;-78
2022/04/21 05:23:45;;;;;;;15.10;7.60;;;;;;;4.62;100.00;101445.81;5093718;28;20042;-78
2022/04/21 05:26:10;;;;;;;13.25;7.10;;;;;;;4.83;100.00;101443.72;5061896;28;20027;-78
2022/04/21 05:28:36;;;;;;;13.32;7.68;;;;;;;4.96;100.00;101439.44;5090133;28;20036;-78
2022/04/21 05:31:02;;;;;;;14.98;7.00;;;;;;;5.12;100.00;101441.94;5085563;28;20031;-76
2022/04/21 05:33:30;;;;;;;13.73;7.30;;;;;;;5.21;100.00;101448.34;5071791;28;20052;-77
2022/04/21 05:35:57;;;;;;;15.68;6.82;;;;;;;5.34;100.00;101449.25;5070084;28;20035;-77
2022/04/21 05:38:23;;;;;;;11.43;6.65;;;;;;;5.52;100.00;101446.41;5090832;28;20418;-77
2022/04/21 05:40:50;;;;;;;10.07;5.80;;;;;;;5.69;100.00;101446.22;5095822;28;20032;-77
2022/04/21 05:43:20;;;;;;;11.77;6.30;;;;;;;5.73;100.00;101439.06;5057873;28;20405;-78
2022/04/21 05:45:47;;;;;;;14.70;6.07;;;;;;;5.89;100.00;101455.34;5073263;28;20040;-77
2022/04/21 05:48:14;;;;;;;9.18;5.68;;;;;;;6.02;100.00;101453.63;5070547;28;20465;-79
2022/04/21 05:50:43;;;;;;;9.60;5.93;;;;;;;6.16;100.00;101444.09;5072376;28;20390;-77
2022/04/21 05:53:11;;;;;;;9.80;6.32;;;;;;;6.22;100.00;101449.75;5059928;28;20039;-77
2022/04/21 05:55:36;;;;;;;11.82;6.30;;;;;;;6.38;100.00;101449.56;5057623;28;20040;-77
2022/04/21 05:58:02;;;;;;;14.20;5.68;;;;;;;6.67;100.00;101454.59;5074287;28;20024;-77
2022/04/21 06:00:28;;;;;;;11.95;5.80;;;;;;;6.83;100.00;101457.00;5088909;28;20043;-77
2022/04/21 06:02:54;;;;;;;8.85;5.32;;;;;;;6.95;100.00;101450.94;5089667;28;20397;-77
2022/04/21 06:05:20;;;;;;;7.80;4.70;;;;;;;7.11;100.00;101461.16;5073869;28;20415;-77
2022/04/21 06:07:45;;;;;;;9.10;4.93;;;;;;;7.21;100.00;101458.72;5091413;28;20028;-77
2022/04/21 06:10:11;;;;;;;7.63;4.45;;;;;;;7.40;100.00;101459.13;5090197;28;20035;-76
2022/04/21 06:12:38;;;;;;;7.82;4.32;;;;;;;7.48;99.18;101463.81;5076452;28;20024;-80
2022/04/21 06:15:04;;;;;;;12.00;4.45;;;;;;;7.66;98.23;101458.19;5057880;28;20043;-78
2022/04/21 06:17:29;;;;;;;10.50;4.50;;;;;;;7.57;98.86;101451.84;5108100;28;20024;-77
2022/04/21 06:19:56;;;;;;;8.70;4.47;;;;;;;7.59;97.16;101461.25;5065562;28;20032;-78
2022/04/21 06:22:21;;;;;;;9.50;4.38;;;;;;;7.70;96.22;101449.19;5068654;28;20034;-77
2022/04/21 06:24:47;;;;;;;4.90;3.47;;;;;;;7.84;95.68;101458.66;5074299;28;20028;-77
2022/04/21 06:27:12;;;;;;;6.38;3.90;;;;;;;7.96;97.63;101460.38;5092659;28;20032;-76
2022/04/21 06:29:38;;;;;;;5.47;4.05;;;;;;;7.96;94.59;101466.44;5092691;28;20032;-77
2022/04/21 06:32:04;;;;;;;7.47;3.53;;;;;;;7.97;93.44;101451.59;5059618;28;20028;-76
2022/04/21 06:34:32;;;;;;;6.38;3.72;;;;;;;8.11;93.12;101454.03;5091520;28;20043;-76
2022/04/21 06:37:01;;;;;;;8.95;4.03;;;;;;;8.32;94.94;101453.38;5087481;28;20069;-76
2022/04/21 06:39:27;;;;;;;7.95;3.60;;;;;;;8.55;91.10;101455.16;5088398;28;20036;-76
2022/04/21 06:41:52;;;;;;;6.85;3.30;;;;;;;8.60;91.30;101453.97;5088616;28;20032;-76
2022/04/21 06:49:47;;;;;;;7.43;3.40;;;;;;;8.96;88.95;101455.53;5072849;28;20039;-76
2022/04/21 06:52:12;;;;;;;4.13;3.00;;;;;;;9.15;86.25;101461.03;5089280;28;20028;-77
2022/04/21 06:54:38;;;;;;;6.10;3.38;;;;;;;9.25;86.07;101455.91;5072180;28;20097;-78
2022/04/21 06:57:03;;;;;;;7.13;3.28;;;;;;;9.13;86.03;101456.84;5072141;28;20118;-77
2022/04/21 06:59:29;;;;;;;5.82;2.88;;;;;;;8.91;83.56;101450.66;5088683;28;20043;-77
2022/04/21 07:01:55;;;;;;;6.03;2.60;;;;;;;9.13;85.21;101455.06;5079127;28;20032;-77
2022/04/21 07:04:20;;;;;;;4.63;2.90;;;;;;;9.35;84.50;101456.00;5085328;28;20130;-77
2022/04/21 07:06:46;;;;;;;6.43;2.80;;;;;;;9.55;82.86;101460.50;5077213;28;20032;-77
2022/04/21 07:09:12;;;;;;;8.07;2.83;;;;;;;9.53;82.90;101459.78;5070740;28;20036;-78
2022/04/21 07:11:41;;;;;;;5.50;2.90;;;;;;;9.53;81.80;101469.41;5089146;28;20028;-76
2022/04/21 07:14:06;;;;;;;7.10;3.20;;;;;;;9.66;81.62;101474.50;5070804;28;20088;-78
2022/04/21 07:16:32;;;;;;;4.90;2.67;;;;;;;9.85;80.20;101471.25;5066777;28;20048;-77
2022/04/21 07:18:57;;;;;;;4.43;2.50;;;;;;;10.02;77.83;101470.72;5054999;28;20050;-76
2022/04/21 07:21:23;;;;;;;8.32;2.60;;;;;;;10.23;79.19;101477.78;5086873;28;20032;-77
2022/04/21 07:23:49;;;;;;;5.22;2.35;;;;;;;10.24;76.68;101480.28;5085964;28;20401;-77
2022/04/21 07:26:15;;;;;;;6.07;2.78;;;;;;;9.84;76.84;101478.28;5066957;28;20036;-77
2022/04/21 07:28:42;;;;;;;5.57;2.60;;;;;;;10.10;78.66;101488.44;5088092;28;20034;-77
2022/04/21 07:31:08;;;;;;;8.15;2.78;;;;;;;10.40;79.48;101487.75;5086174;28;20046;-77
2022/04/21 07:33:33;;;;;;;5.15;2.83;;;;;;;10.58;77.38;101484.53;5069844;28;20036;-78
2022/04/21 07:35:59;;;;;;;7.10;2.90;;;;;;;10.57;77.60;101482.88;5102752;28;20493;-77
2022/04/21 07:38:24;;;;;;;6.60;2.45;;;;;;;10.86;77.45;101486.50;5086235;28;20044;-77
2022/04/21 07:40:53;;;;;;;4.53;2.67;;;;;;;11.12;78.68;101490.50;5071357;28;20028;-77
2022/04/21 07:43:19;;;;;;;6.15;2.58;;;;;;;10.94;76.46;101491.09;5103981;28;20040;-78
2022/04/21 07:45:45;;;;;;;5.47;2.60;;;;;;;10.84;74.98;101496.31;5072831;28;20042;-79
2022/04/21 07:48:11;;;;;;;5.68;2.90;;;;;;;10.70;76.45;101491.41;5086792;28;20115;-77
2022/04/21 07:50:36;;;;;;;7.95;3.03;;;;;;;10.73;77.88;101498.19;5088056;28;20058;-76
2022/04/21 07:53:15;;;;;;;8.02;2.97;;;;;;;10.97;76.82;101495.28;5071274;28;21506;-79
2022/04/21 07:55:50;;;;;;;8.02;2.40;;;;;;;10.93;77.65;101501.75;5087612;28;20047;-78
2022/04/21 07:58:16;;;;;;;5.43;2.67;;;;;;;10.77;74.91;101496.94;5085530;28;20118;-77
2022/04/21 08:00:42;;;;;;;4.85;2.45;;;;;;;10.86;75.13;101498.81;5088399;28;20818;-77
2022/04/21 08:03:07;;;;;;;7.43;2.45;;;;;;;11.21;75.91;101502.84;5070781;28;20040;-78
2022/04/21 08:05:33;;;;;;;5.97;2.45;;;;;;;11.23;74.83;101496.50;5078954;28;20108;-76
2022/04/21 08:07:59;;;;;;;5.18;2.30;;;;;;;11.38;72.40;101499.59;5086173;28;20032;-77
2022/04/21 08:10:27;;;;;;;4.55;2.33;;;;;;;11.86;74.78;101500.66;5088426;28;20039;-77
2022/04/21 08:12:54;;;;;;;9.65;2.45;;;;;;;12.17;73.08;101505.84;5052419;28;20040;-76
2022/04/21 08:15:26;;;;;;;3.70;2.38;;;;;;;12.02;69.08;101493.09;5055398;28;20036;-78
2022/04/21 08:17:54;;;;;;;7.35;2.10;;;;;;;11.74;68.62;101492.06;5088020;28;20072;-80
2022/04/21 08:20:21;;;;;;;4.85;1.98;;;;;;;12.00;68.09;101487.16;5072148;28;20067;-78
2022/04/21 08:22:46;;;;;;;9.30;2.70;;;;;;;12.05;69.62;101492.00;5092697;28;20028;-77
2022/04/21 08:33:26;;;;;;;5.13;1.75;;;;;;;12.84;65.86;101485.66;5091595;28;20040;-78
2022/04/21 08:35:57;;;;;;;5.22;1.92;;;;;;;12.71;63.42;101491.22;5091211;28;20032;-77
2022/04/21 08:38:24;;;;;;;3.50;1.60;;;;;;;12.68;65.92;101491.53;5092096;28;20119;-77
2022/04/21 08:40:53;;;;;;;2.55;1.85;;;;;;;12.74;66.19;101498.84;5094038;28;20443;-76
2022/04/21 08:43:19;;;;;;;7.60;2.08;;;;;;;12.78;63.18;101494.97;5077369;28;20043;-78
2022/04/21 08:45:47;;;;;;;4.47;2.25;;;;;;;12.80;62.63;101477.22;5092742;28;20052;-77
2022/04/21 08:48:15;;;;;;;3.80;1.80;;;;;;;12.97;64.28;101480.91;5074615;28;20480;-77
2022/04/21 08:50:41;;;;;;;6.05;1.80;;;;;;;13.20;65.91;101481.38;5065060;28;20143;-77
2022/04/21 08:53:13;;;;;;;4.70;1.48;;;;;;;13.25;62.78;101484.41;5075269;28;20031;-77
2022/04/21 08:55:39;;;;;;;4.57;1.80;;;;;;;13.23;61.08;101480.25;5076955;28;20036;-78
2022/04/21 08:58:05;;;;;;;5.95;1.77;;;;;;;13.25;62.56;101480.94;5092595;28;20036;-78
2022/04/21 09:00:31;;;;;;;8.60;2.17;;;;;;;13.16;62.01;101487.91;5073457;28;20043;-78
2022/04/21 09:03:03;;;;;;;5.10;1.90;;;;;;;13.18;60.07;101490.38;5090962;28;20498;-77
2022/04/21 09:05:30;;;;;;;3.33;1.70;;;;;;;12.61;60.08;101486.00;5091219;28;20130;-77
2022/04/21 09:08:00;;;;;;;7.72;1.90;;;;;;;12.58;61.45;101473.13;5074618;28;20114;-77
2022/04/21 09:10:28;;;;;;;5.28;1.80;;;;;;;12.75;61.27;101473.34;5059104;28;20062;-76
2022/04/21 09:12:56;;;;;;;4.18;1.88;;;;;;;12.68;60.66;101456.47;5093741;28;20024;-79
2022/04/21 09:15:30;;;;;;;2.92;1.90;;;;;;;13.23;61.03;101469.72;5090916;28;20052;-78
2022/04/21 09:18:00;;;;;;;4.70;1.92;;;;;;;13.06;60.63;101458.16;5072869;28;20039;-78
2022/04/21 09:20:35;;;;;;;4.72;1.70;;;;;;;13.32;59.42;101463.59;5089060;28;20120;-78
2022/04/21 09:23:07;;;;;;;3.40;1.80;;;;;;;13.33;60.74;101464.44;5076992;28;20498;-77
2022/04/21 09:25:46;;;;;;;4.07;2.10;;;;;;;13.24;60.63;101458.19;5083804;28;20043;-77
2022/04/21 09:28:29;;;;;;;3.10;1.70;;;;;;;13.36;60.59;101459.69;5089096;28;20100;-77
2022/04/21 09:30:58;;;;;;;3.97;2.00;;;;;;;13.21;60.02;101454.06;5076173;28;20040;-77
2022/04/21 09:33:29;;;;;;;4.20;1.85;;;;;;;13.57;59.30;101461.25;5092766;28;20024;-78
2022/04/21 09:35:56;;;;;;;5.18;1.92;;;;;;;13.66;60.71;101462.16;5092842;28;20036;-77
2022/04/21 09:38:22;;;;;;;5.57;1.90;;;;;;;13.42;59.72;101459.09;5091937;28;20071;-78
2022/04/21 09:40:49;;;;;;;6.95;2.05;;;;;;;13.60;60.03;101461.78;5093036;28;20591;-77
2022/04/21 09:43:25;;;;;;;2.50;1.58;;;;;;;13.93;58.55;101467.34;5093196;28;20028;-77
2022/04/21 09:46:09;;;;;;;3.55;1.80;;;;;;;14.07;58.72;101459.91;5092801;28;20035;-78
2022/04/21 09:48:34;;;;;;;6.03;2.10;;;;;;;14.04;57.76;101463.69;5078273;28;20084;-77
2022/04/21 09:51:10;;;;;;;4.68;2.00;;;;;;;13.89;57.27;101463.38;5076736;28;20096;-78
2022/04/21 09:54:05;;;;;;;7.88;1.95;;;;;;;14.14;59.20;101459.13;5086817;28;20024;-78
2022/04/21 09:56:40;;;;;;;5.88;1.80;;;;;;;14.30;58.71;101466.38;5088011;28;20219;-79
2022/04/21 09:59:10;;;;;;;5.78;1.92;;;;;;;14.70;58.11;101461.56;5064900;28;20497;-78
2022/04/21 10:01:38;;;;;;;4.15;1.83;;;;;;;15.04;57.63;101460.75;5070763;28;20023;-77
2022/04/21 10:04:06;;;;;;;5.97;1.70;;;;;;;14.98;55.77;101455.09;5060271;28;20560;-78
2022/04/21 10:06:32;;;;;;;7.22;2.03;;;;;;;14.35;56.16;101452.69;5072291;28;20089;-79
2022/04/21 10:08:58;;;;;;;7.68;1.90;;;;;;;14.45;56.65;101445.53;5095669;28;20093;-74
2022/04/21 10:11:24;;;;;;;6.65;1.52;;;;;;;14.23;57.90;101453.94;5076617;28;20047;-78
2022/04/21 10:13:53;;;;;;;3.28;1.65;;;;;;;13.85;59.41;101455.94;5075318;28;20027;-77
2022/04/21 10:16:19;;;;;;;6.38;1.75;;;;;;;14.33;58.76;101452.03;5075452;28;20040;-78
2022/04/21 10:18:50;;;;;;;5.10;1.67;;;;;;;14.56;56.78;101450.53;5090953;28;20016;-77
2022/04/21 10:21:39;;;;;;;3.85;1.88;;;;;;;14.52;58.24;101445.72;5071087;28;20040;-77
2022/04/21 10:24:06;;;;;;;3.38;1.85;;;;;;;14.28;56.90;101443.72;5077235;28;20040;-77
2022/04/21 10:26:40;;;;;;;5.15;1.90;;;;;;;14.35;56.43;101452.69;5092778;28;20402;-76
2022/04/21 10:29:21;;;;;;;7.63;1.75;;;;;;;14.44;56.79;101450.97;5075399;28;20043;-78
2022/04/21 10:31:59;;;;;;;3.88;1.90;;;;;;;14.39;58.78;101440.84;5094871;28;20152;-77
2022/04/21 10:34:40;;;;;;;5.00;1.80;;;;;;;14.63;56.57;101445.50;5108513;28;20029;-77
2022/04/21 10:37:20;;;;;;;2.17;1.73;;;;;;;15.12;56.23;101448.38;5096449;28;20047;-77
2022/04/21 10:39:58;;;;;;;6.93;2.03;;;;;;;15.53;53.61;101451.16;5085798;28;20047;-79
2022/04/21 10:42:24;;;;;;;5.25;2.13;;;;;;;15.42;55.05;101438.22;5090718;28;20044;-77
2022/04/21 10:44:52;;;;;;;2.15;1.90;;;;;;;14.94;55.50;101442.38;5070265;28;20044;-78
2022/04/21 10:47:35;;;;;;;6.45;1.83;;;;;;;15.49;58.75;101438.44;5059974;28;20050;-78
2022/04/21 10:50:19;;;;;;;6.07;2.00;;;;;;;15.46;55.48;101436.91;5070193;28;20143;-80
2022/04/21 10:58:33;;;;;;;7.53;2.25;;;;;;;14.74;56.27;101434.66;5088972;28;20815;-78
2022/04/21 11:01:31;;;;;;;3.33;1.67;;;;;;;14.46;57.54;101430.50;5073416;28;20032;-81
2022/04/21 11:04:05;;;;;;;4.75;1.60;;;;;;;14.37;58.84;101424.34;5089922;28;20048;-76
2022/04/21 11:06:46;;;;;;;5.28;2.30;;;;;;;14.09;57.56;101432.41;5064935;28;20046;-76
2022/04/21 11:09:37;;;;;;;9.32;2.28;;;;;;;13.96;59.16;101437.25;5089267;28;20039;-78
2022/04/21 11:12:05;;;;;;;5.85;2.03;;;;;;;13.64;60.24;101435.94;5085647;28;20040;-76
2022/04/21 11:14:33;;;;;;;10.73;2.35;;;;;;;13.57;60.65;101440.97;5057566;28;20047;-77
2022/04/21 11:17:04;;;;;;;3.70;1.60;;;;;;;13.74;60.60;101438.50;5072758;28;20081;-77
2022/04/21 11:19:31;;;;;;;6.05;1.88;;;;;;;13.74;59.27;101434.06;5067905;28;20386;-78
2022/04/21 11:22:11;;;;;;;6.95;2.00;;;;;;;13.65;58.40;101445.50;5073012;28;20130;-77
2022/04/21 11:24:55;;;;;;;5.25;1.80;;;;;;;13.62;58.96;101438.72;5071774;28;20049;-77
2022/04/21 11:27:22;;;;;;;2.85;1.60;;;;;;;13.60;59.91;101430.16;5069878;28;20051;-79
2022/04/21 11:29:48;;;;;;;3.08;1.70;;;;;;;13.73;62.25;101431.56;5066713;28;20032;-77
2022/04/21 11:32:18;;;;;;;5.78;2.05;;;;;;;13.53;59.21;101421.19;5070655;28;20032;-76
2022/04/21 11:34:58;;;;;;;7.32;1.92;;;;;;;13.43;61.34;101425.69;5087068;28;20032;-76
2022/04/21 11:37:43;;;;;;;3.75;1.73;;;;;;;13.38;60.79;101420.03;5070182;28;20036;-77
2022/04/21 11:40:28;;;;;;;3.50;1.60;;;;;;;13.30;61.19;101419.88;5084942;28;20047;-77
2022/04/21 11:42:55;;;;;;;3.17;1.85;;;;;;;13.24;62.01;101414.25;5069534;28;20525;-77
2022/04/21 11:45:27;;;;;;;8.07;2.47;;;;;;;13.32;62.33;101412.72;5069523;28;20652;-77
2022/04/21 11:47:53;;;;;;;5.85;2.00;;;;;;;13.47;60.22;101413.03;5071808;28;20063;-77
2022/04/21 11:50:24;;;;;;;5.93;1.63;;;;;;;13.72;62.90;101416.75;5071620;28;20036;-78
2022/04/21 11:52:52;;;;;;;7.55;1.65;;;;;;;13.60;58.93;101409.06;5058366;28;20031;-76
2022/04/21 11:55:28;;;;;;;10.95;1.80;;;;;;;13.83;59.35;101411.25;5068105;28;20039;-78
2022/04/21 11:57:56;;;;;;;5.15;1.65;;;;;;;14.14;59.27;101416.91;5095801;28;20611;-77
2022/04/21 12:08:48;;;;;;;10.50;1.65;;;;;;;13.57;58.90;101412.00;5076028;28;20093;-77
2022/04/21 12:11:19;;;;;;;8.93;1.80;;;;;;;13.71;59.92;101402.75;5074345;28;20036;-78
2022/04/21 12:13:46;;;;;;;8.57;1.83;;;;;;;13.82;58.45;101410.44;5090923;28;20031;-79
2022/04/21 12:16:47;;;;;;;5.07;1.90;;;;;;;14.24;57.93;101402.81;5090059;28;20107;-77